Averill, Vermont
Current Conditions -  °F | °C
As of 10:00 AM on Tuesday 21 Oct 2014 (Local Time) from CYSC Reporting Station
Light Rain Light Rain  
Wind Chill: 39°   Ceiling: 4400
Heat Index: 43°   Visibility: 9mi
Dew Point: 41°   Wind: 6mph
Humidity: 93%   Direction: 60°ENE
Pressure: 30.02"   Gusts: NA
Location:  45°N, 71.71°W
Report Text: CYSC 211400Z AUTO 06005KT 9SM -RA FEW030 OVC044 06/05 A3002 RMK SLP173
Loading
Personal Weather Stations






























Interactive Weather Map
Tropical Storm Tracking
New forecast layout! Learn more

10-Day Weather Forecast

Advertisements
Track Severe Weather on mobile